sensor_id;sensor_type;location;lat;lon;timestamp;temperature;humidity
72756;SHT30;60881;55.002;73.232;2022-08-25T00:02:04;13.04;80.41
72756;SHT30;60881;55.002;73.232;2022-08-25T00:04:32;13.07;80.33
72756;SHT30;60881;55.002;73.232;2022-08-25T00:07:01;13.09;80.31
72756;SHT30;60881;55.002;73.232;2022-08-25T00:09:29;13.12;79.85
72756;SHT30;60881;55.002;73.232;2022-08-25T00:11:56;13.20;79.75
72756;SHT30;60881;55.002;73.232;2022-08-25T00:14:32;13.31;79.25
72756;SHT30;60881;55.002;73.232;2022-08-25T00:17:00;13.36;79.08
72756;SHT30;60881;55.002;73.232;2022-08-25T00:19:33;13.43;79.09
72756;SHT30;60881;55.002;73.232;2022-08-25T00:22:02;13.46;79.06
72756;SHT30;60881;55.002;73.232;2022-08-25T00:24:34;13.83;77.89
72756;SHT30;60881;55.002;73.232;2022-08-25T00:27:01;13.95;77.54
72756;SHT30;60881;55.002;73.232;2022-08-25T00:29:29;14.20;76.45
72756;SHT30;60881;55.002;73.232;2022-08-25T00:31:56;14.57;74.98
72756;SHT30;60881;55.002;73.232;2022-08-25T00:34:26;14.44;75.43
72756;SHT30;60881;55.002;73.232;2022-08-25T00:36:53;14.59;74.63
72756;SHT30;60881;55.002;73.232;2022-08-25T00:39:25;14.41;75.10
72756;SHT30;60881;55.002;73.232;2022-08-25T00:41:54;14.37;75.52
72756;SHT30;60881;55.002;73.232;2022-08-25T00:44:22;14.37;75.93
72756;SHT30;60881;55.002;73.232;2022-08-25T00:46:53;14.43;75.75
72756;SHT30;60881;55.002;73.232;2022-08-25T00:49:36;14.65;74.60
72756;SHT30;60881;55.002;73.232;2022-08-25T00:52:08;14.64;74.92
72756;SHT30;60881;55.002;73.232;2022-08-25T00:54:46;15.72;71.20
72756;SHT30;60881;55.002;73.232;2022-08-25T00:57:17;16.53;68.41
72756;SHT30;60881;55.002;73.232;2022-08-25T00:59:46;17.85;64.30
72756;SHT30;60881;55.002;73.232;2022-08-25T01:02:14;18.68;61.20
72756;SHT30;60881;55.002;73.232;2022-08-25T01:04:42;19.08;60.55
72756;SHT30;60881;55.002;73.232;2022-08-25T01:07:09;19.43;59.81
72756;SHT30;60881;55.002;73.232;2022-08-25T01:09:37;19.67;58.83
72756;SHT30;60881;55.002;73.232;2022-08-25T01:12:04;19.81;58.26
72756;SHT30;60881;55.002;73.232;2022-08-25T01:14:31;19.86;58.05
72756;SHT30;60881;55.002;73.232;2022-08-25T01:16:59;19.38;59.24
72756;SHT30;60881;55.002;73.232;2022-08-25T01:19:27;18.60;61.76
72756;SHT30;60881;55.002;73.232;2022-08-25T01:21:54;18.16;62.84
72756;SHT30;60881;55.002;73.232;2022-08-25T01:24:37;17.89;63.87
72756;SHT30;60881;55.002;73.232;2022-08-25T01:27:06;17.71;64.48
72756;SHT30;60881;55.002;73.232;2022-08-25T01:29:33;17.55;65.15
72756;SHT30;60881;55.002;73.232;2022-08-25T01:32:05;17.31;65.37
72756;SHT30;60881;55.002;73.232;2022-08-25T01:34:34;17.14;66.51
72756;SHT30;60881;55.002;73.232;2022-08-25T01:37:01;17.04;67.12
72756;SHT30;60881;55.002;73.232;2022-08-25T01:39:30;16.92;67.63
72756;SHT30;60881;55.002;73.232;2022-08-25T01:44:31;16.80;67.21
72756;SHT30;60881;55.002;73.232;2022-08-25T01:47:00;16.76;68.06
72756;SHT30;60881;55.002;73.232;2022-08-25T01:49:26;16.66;68.02
72756;SHT30;60881;55.002;73.232;2022-08-25T01:54:27;16.64;68.19
72756;SHT30;60881;55.002;73.232;2022-08-25T01:57:04;16.66;69.32
72756;SHT30;60881;55.002;73.232;2022-08-25T01:59:33;16.67;69.50
72756;SHT30;60881;55.002;73.232;2022-08-25T02:01:59;16.71;69.68
72756;SHT30;60881;55.002;73.232;2022-08-25T02:04:28;16.73;69.33
72756;SHT30;60881;55.002;73.232;2022-08-25T02:07:04;16.77;69.62
72756;SHT30;60881;55.002;73.232;2022-08-25T02:09:30;16.80;68.76
72756;SHT30;60881;55.002;73.232;2022-08-25T02:11:57;16.80;69.45
72756;SHT30;60881;55.002;73.232;2022-08-25T02:14:25;16.88;68.84
72756;SHT30;60881;55.002;73.232;2022-08-25T02:16:54;16.94;67.68
72756;SHT30;60881;55.002;73.232;2022-08-25T02:19:23;17.03;66.94
72756;SHT30;60881;55.002;73.232;2022-08-25T02:21:51;17.12;65.66
72756;SHT30;60881;55.002;73.232;2022-08-25T02:24:27;17.15;63.33
72756;SHT30;60881;55.002;73.232;2022-08-25T02:26:54;17.21;63.22
72756;SHT30;60881;55.002;73.232;2022-08-25T02:29:21;17.27;63.09
72756;SHT30;60881;55.002;73.232;2022-08-25T02:31:48;17.28;62.46
72756;SHT30;60881;55.002;73.232;2022-08-25T02:34:15;17.30;61.64
72756;SHT30;60881;55.002;73.232;2022-08-25T02:36:42;17.34;62.11
72756;SHT30;60881;55.002;73.232;2022-08-25T02:39:10;17.38;62.39
72756;SHT30;60881;55.002;73.232;2022-08-25T02:41:37;17.39;61.19
72756;SHT30;60881;55.002;73.232;2022-08-25T02:44:06;17.42;59.76
72756;SHT30;60881;55.002;73.232;2022-08-25T02:46:35;17.49;59.56
72756;SHT30;60881;55.002;73.232;2022-08-25T02:49:03;17.55;60.39
72756;SHT30;60881;55.002;73.232;2022-08-25T02:51:30;17.59;59.79
72756;SHT30;60881;55.002;73.232;2022-08-25T02:54:00;17.61;59.95
72756;SHT30;60881;55.002;73.232;2022-08-25T02:56:28;17.65;58.97
72756;SHT30;60881;55.002;73.232;2022-08-25T02:58:55;17.64;58.80
72756;SHT30;60881;55.002;73.232;2022-08-25T03:01:22;17.68;58.93
72756;SHT30;60881;55.002;73.232;2022-08-25T03:03:48;17.72;59.12
72756;SHT30;60881;55.002;73.232;2022-08-25T03:06:22;17.75;57.98
72756;SHT30;60881;55.002;73.232;2022-08-25T03:08:51;17.82;57.95
72756;SHT30;60881;55.002;73.232;2022-08-25T03:11:20;17.85;58.68
72756;SHT30;60881;55.002;73.232;2022-08-25T03:13:56;17.85;58.65
72756;SHT30;60881;55.002;73.232;2022-08-25T03:16:23;17.90;58.34
72756;SHT30;60881;55.002;73.232;2022-08-25T03:18:50;17.93;58.91
72756;SHT30;60881;55.002;73.232;2022-08-25T03:21:16;18.02;59.36
72756;SHT30;60881;55.002;73.232;2022-08-25T03:23:43;18.09;58.18
72756;SHT30;60881;55.002;73.232;2022-08-25T03:26:10;18.10;58.00
72756;SHT30;60881;55.002;73.232;2022-08-25T03:28:55;18.14;58.16
72756;SHT30;60881;55.002;73.232;2022-08-25T03:31:22;18.17;58.22
72756;SHT30;60881;55.002;73.232;2022-08-25T03:33:52;18.22;58.25
72756;SHT30;60881;55.002;73.232;2022-08-25T03:36:18;18.28;57.49
72756;SHT30;60881;55.002;73.232;2022-08-25T03:38:45;18.29;57.22
72756;SHT30;60881;55.002;73.232;2022-08-25T03:41:18;18.37;57.40
72756;SHT30;60881;55.002;73.232;2022-08-25T03:43:48;18.47;57.01
72756;SHT30;60881;55.002;73.232;2022-08-25T03:46:19;18.50;57.00
72756;SHT30;60881;55.002;73.232;2022-08-25T03:48:47;18.56;56.16
72756;SHT30;60881;55.002;73.232;2022-08-25T03:51:26;18.60;56.36
72756;SHT30;60881;55.002;73.232;2022-08-25T03:53:53;18.68;56.28
72756;SHT30;60881;55.002;73.232;2022-08-25T03:56:20;18.73;56.25
72756;SHT30;60881;55.002;73.232;2022-08-25T03:58:46;18.74;56.18
72756;SHT30;60881;55.002;73.232;2022-08-25T04:01:14;18.77;56.05
72756;SHT30;60881;55.002;73.232;2022-08-25T04:03:41;18.80;55.42
72756;SHT30;60881;55.002;73.232;2022-08-25T04:06:08;18.83;55.47
72756;SHT30;60881;55.002;73.232;2022-08-25T04:08:35;18.86;55.45
72756;SHT30;60881;55.002;73.232;2022-08-25T04:11:21;18.89;55.75
72756;SHT30;60881;55.002;73.232;2022-08-25T04:13:49;18.99;55.83
72756;SHT30;60881;55.002;73.232;2022-08-25T04:16:24;19.06;53.94
72756;SHT30;60881;55.002;73.232;2022-08-25T04:18:51;19.08;53.92
72756;SHT30;60881;55.002;73.232;2022-08-25T04:21:18;19.11;53.66
72756;SHT30;60881;55.002;73.232;2022-08-25T04:23:46;19.15;53.62
72756;SHT30;60881;55.002;73.232;2022-08-25T04:26:32;19.27;52.92
72756;SHT30;60881;55.002;73.232;2022-08-25T04:29:00;19.35;51.65
72756;SHT30;60881;55.002;73.232;2022-08-25T04:31:27;19.34;51.30
72756;SHT30;60881;55.002;73.232;2022-08-25T04:33:55;19.39;51.20
72756;SHT30;60881;55.002;73.232;2022-08-25T04:36:22;19.43;52.23
72756;SHT30;60881;55.002;73.232;2022-08-25T04:38:52;19.50;51.58
72756;SHT30;60881;55.002;73.232;2022-08-25T04:41:25;19.51;50.30
72756;SHT30;60881;55.002;73.232;2022-08-25T04:43:52;19.59;52.28
72756;SHT30;60881;55.002;73.232;2022-08-25T04:46:25;19.62;49.88
72756;SHT30;60881;55.002;73.232;2022-08-25T04:48:53;19.82;49.65
72756;SHT30;60881;55.002;73.232;2022-08-25T04:51:23;19.99;48.62
72756;SHT30;60881;55.002;73.232;2022-08-25T04:53:50;20.06;47.29
72756;SHT30;60881;55.002;73.232;2022-08-25T04:56:19;20.06;47.23
72756;SHT30;60881;55.002;73.232;2022-08-25T04:58:46;20.02;47.56
72756;SHT30;60881;55.002;73.232;2022-08-25T05:01:15;20.05;45.71
72756;SHT30;60881;55.002;73.232;2022-08-25T05:03:44;20.09;45.56
72756;SHT30;60881;55.002;73.232;2022-08-25T05:06:11;20.18;46.46
72756;SHT30;60881;55.002;73.232;2022-08-25T05:08:38;20.23;45.65
72756;SHT30;60881;55.002;73.232;2022-08-25T05:11:09;20.42;44.98
72756;SHT30;60881;55.002;73.232;2022-08-25T05:13:39;20.40;44.96
72756;SHT30;60881;55.002;73.232;2022-08-25T05:16:06;20.33;46.65
72756;SHT30;60881;55.002;73.232;2022-08-25T05:18:34;20.32;44.61
72756;SHT30;60881;55.002;73.232;2022-08-25T05:21:02;20.40;45.17
72756;SHT30;60881;55.002;73.232;2022-08-25T05:23:29;20.39;44.23
72756;SHT30;60881;55.002;73.232;2022-08-25T05:26:04;20.45;43.55
72756;SHT30;60881;55.002;73.232;2022-08-25T05:28:31;20.49;43.02
72756;SHT30;60881;55.002;73.232;2022-08-25T05:31:00;20.47;43.09
72756;SHT30;60881;55.002;73.232;2022-08-25T05:33:31;20.47;45.07
72756;SHT30;60881;55.002;73.232;2022-08-25T05:35:58;20.52;43.99
72756;SHT30;60881;55.002;73.232;2022-08-25T05:38:29;20.63;44.59
72756;SHT30;60881;55.002;73.232;2022-08-25T05:40:57;20.76;43.42
72756;SHT30;60881;55.002;73.232;2022-08-25T05:43:24;20.97;42.59
72756;SHT30;60881;55.002;73.232;2022-08-25T05:45:55;21.02;43.33
72756;SHT30;60881;55.002;73.232;2022-08-25T05:48:27;21.03;43.86
72756;SHT30;60881;55.002;73.232;2022-08-25T05:50:56;21.14;41.36
72756;SHT30;60881;55.002;73.232;2022-08-25T05:53:25;21.17;40.82
72756;SHT30;60881;55.002;73.232;2022-08-25T05:55:53;21.15;41.23
72756;SHT30;60881;55.002;73.232;2022-08-25T05:58:20;21.08;42.00
72756;SHT30;60881;55.002;73.232;2022-08-25T06:00:48;21.10;42.46
72756;SHT30;60881;55.002;73.232;2022-08-25T06:03:15;21.00;42.16
72756;SHT30;60881;55.002;73.232;2022-08-25T06:05:42;20.94;41.55
72756;SHT30;60881;55.002;73.232;2022-08-25T06:08:17;20.99;41.91
72756;SHT30;60881;55.002;73.232;2022-08-25T06:10:44;21.02;41.26
72756;SHT30;60881;55.002;73.232;2022-08-25T06:13:16;21.11;42.03
72756;SHT30;60881;55.002;73.232;2022-08-25T06:15:44;21.33;41.82
72756;SHT30;60881;55.002;73.232;2022-08-25T06:18:10;21.24;42.97
72756;SHT30;60881;55.002;73.232;2022-08-25T06:20:37;21.28;42.64
72756;SHT30;60881;55.002;73.232;2022-08-25T06:23:10;21.24;43.28
72756;SHT30;60881;55.002;73.232;2022-08-25T06:25:37;21.46;42.88
72756;SHT30;60881;55.002;73.232;2022-08-25T06:28:05;21.58;42.59
72756;SHT30;60881;55.002;73.232;2022-08-25T06:30:31;21.51;42.82
72756;SHT30;60881;55.002;73.232;2022-08-25T06:32:59;21.67;41.64
72756;SHT30;60881;55.002;73.232;2022-08-25T06:35:27;21.70;40.97
72756;SHT30;60881;55.002;73.232;2022-08-25T06:37:56;21.67;41.16
72756;SHT30;60881;55.002;73.232;2022-08-25T06:40:23;21.68;42.15
72756;SHT30;60881;55.002;73.232;2022-08-25T06:42:51;21.73;42.03
72756;SHT30;60881;55.002;73.232;2022-08-25T06:45:28;21.74;41.94
72756;SHT30;60881;55.002;73.232;2022-08-25T06:47:56;21.74;42.21
72756;SHT30;60881;55.002;73.232;2022-08-25T06:50:22;21.75;43.27
72756;SHT30;60881;55.002;73.232;2022-08-25T06:52:49;21.82;43.18
72756;SHT30;60881;55.002;73.232;2022-08-25T06:55:23;21.95;42.77
72756;SHT30;60881;55.002;73.232;2022-08-25T06:57:53;21.90;43.60
72756;SHT30;60881;55.002;73.232;2022-08-25T07:00:21;21.91;42.72
72756;SHT30;60881;55.002;73.232;2022-08-25T07:02:48;21.94;43.29
72756;SHT30;60881;55.002;73.232;2022-08-25T07:05:15;22.00;42.44
72756;SHT30;60881;55.002;73.232;2022-08-25T07:07:43;22.00;42.32
72756;SHT30;60881;55.002;73.232;2022-08-25T07:10:11;22.12;41.65
72756;SHT30;60881;55.002;73.232;2022-08-25T07:12:38;22.14;41.72
72756;SHT30;60881;55.002;73.232;2022-08-25T07:15:05;22.21;42.84
72756;SHT30;60881;55.002;73.232;2022-08-25T07:17:32;22.22;41.90
72756;SHT30;60881;55.002;73.232;2022-08-25T07:20:00;22.21;41.88
72756;SHT30;60881;55.002;73.232;2022-08-25T07:22:31;22.15;43.65
72756;SHT30;60881;55.002;73.232;2022-08-25T07:24:59;22.15;42.50
72756;SHT30;60881;55.002;73.232;2022-08-25T07:27:26;22.16;42.65
72756;SHT30;60881;55.002;73.232;2022-08-25T07:29:56;22.25;42.99
72756;SHT30;60881;55.002;73.232;2022-08-25T07:32:23;22.34;42.65
72756;SHT30;60881;55.002;73.232;2022-08-25T07:34:53;22.41;43.57
72756;SHT30;60881;55.002;73.232;2022-08-25T07:37:38;22.46;43.85
72756;SHT30;60881;55.002;73.232;2022-08-25T07:40:08;22.48;44.67
72756;SHT30;60881;55.002;73.232;2022-08-25T07:42:35;22.51;44.00
72756;SHT30;60881;55.002;73.232;2022-08-25T07:45:04;22.48;43.80
72756;SHT30;60881;55.002;73.232;2022-08-25T07:47:31;22.44;43.58
72756;SHT30;60881;55.002;73.232;2022-08-25T07:49:58;22.46;44.16
72756;SHT30;60881;55.002;73.232;2022-08-25T07:52:24;22.51;43.99
72756;SHT30;60881;55.002;73.232;2022-08-25T07:54:51;22.59;43.82
72756;SHT30;60881;55.002;73.232;2022-08-25T07:57:19;22.65;45.45
72756;SHT30;60881;55.002;73.232;2022-08-25T07:59:47;22.76;44.45
72756;SHT30;60881;55.002;73.232;2022-08-25T08:02:13;22.86;45.48
72756;SHT30;60881;55.002;73.232;2022-08-25T08:04:41;22.80;45.15
72756;SHT30;60881;55.002;73.232;2022-08-25T08:07:08;22.80;45.42
72756;SHT30;60881;55.002;73.232;2022-08-25T08:09:35;22.80;45.39
72756;SHT30;60881;55.002;73.232;2022-08-25T08:12:03;22.88;44.41
72756;SHT30;60881;55.002;73.232;2022-08-25T08:14:30;22.90;45.76
72756;SHT30;60881;55.002;73.232;2022-08-25T08:16:58;22.98;45.69
72756;SHT30;60881;55.002;73.232;2022-08-25T08:19:24;23.04;45.83
72756;SHT30;60881;55.002;73.232;2022-08-25T08:21:51;22.96;46.78
72756;SHT30;60881;55.002;73.232;2022-08-25T08:24:18;23.02;45.26
72756;SHT30;60881;55.002;73.232;2022-08-25T08:26:47;23.07;45.72
72756;SHT30;60881;55.002;73.232;2022-08-25T08:29:24;23.04;45.79
72756;SHT30;60881;55.002;73.232;2022-08-25T08:31:50;23.17;46.36
72756;SHT30;60881;55.002;73.232;2022-08-25T08:34:23;23.30;46.76
72756;SHT30;60881;55.002;73.232;2022-08-25T08:37:00;23.34;46.66
72756;SHT30;60881;55.002;73.232;2022-08-25T08:39:28;23.39;45.79
72756;SHT30;60881;55.002;73.232;2022-08-25T08:42:06;23.49;46.10
72756;SHT30;60881;55.002;73.232;2022-08-25T08:47:31;23.47;46.44
72756;SHT30;60881;55.002;73.232;2022-08-25T08:50:17;23.53;46.79
72756;SHT30;60881;55.002;73.232;2022-08-25T08:53:08;23.54;46.52
72756;SHT30;60881;55.002;73.232;2022-08-25T08:55:50;23.51;47.01
72756;SHT30;60881;55.002;73.232;2022-08-25T08:58:20;23.60;46.80
72756;SHT30;60881;55.002;73.232;2022-08-25T09:00:51;23.69;46.71
72756;SHT30;60881;55.002;73.232;2022-08-25T09:03:45;23.70;47.22
72756;SHT30;60881;55.002;73.232;2022-08-25T09:08:54;23.73;47.88
72756;SHT30;60881;55.002;73.232;2022-08-25T09:12:06;23.84;48.11
72756;SHT30;60881;55.002;73.232;2022-08-25T09:20:13;24.00;46.29
72756;SHT30;60881;55.002;73.232;2022-08-25T09:28:36;24.13;45.33
72756;SHT30;60881;55.002;73.232;2022-08-25T09:33:44;24.17;46.01
72756;SHT30;60881;55.002;73.232;2022-08-25T09:36:11;24.32;46.27
72756;SHT30;60881;55.002;73.232;2022-08-25T09:38:38;24.44;44.53
72756;SHT30;60881;55.002;73.232;2022-08-25T09:41:06;24.61;45.22
72756;SHT30;60881;55.002;73.232;2022-08-25T09:43:39;24.55;44.29
72756;SHT30;60881;55.002;73.232;2022-08-25T09:46:25;24.55;45.61
72756;SHT30;60881;55.002;73.232;2022-08-25T09:48:56;24.61;44.97
72756;SHT30;60881;55.002;73.232;2022-08-25T09:51:31;24.57;43.94
72756;SHT30;60881;55.002;73.232;2022-08-25T09:56:54;24.61;44.28
72756;SHT30;60881;55.002;73.232;2022-08-25T09:59:35;24.68;43.86
72756;SHT30;60881;55.002;73.232;2022-08-25T10:04:46;24.75;43.35
72756;SHT30;60881;55.002;73.232;2022-08-25T10:07:26;24.75;44.16
72756;SHT30;60881;55.002;73.232;2022-08-25T10:10:15;24.91;44.58
72756;SHT30;60881;55.002;73.232;2022-08-25T10:12:44;24.95;43.56
72756;SHT30;60881;55.002;73.232;2022-08-25T10:15:26;24.99;41.99
72756;SHT30;60881;55.002;73.232;2022-08-25T10:17:54;24.96;43.36
72756;SHT30;60881;55.002;73.232;2022-08-25T10:20:24;24.88;42.50
72756;SHT30;60881;55.002;73.232;2022-08-25T10:23:12;24.91;43.38
72756;SHT30;60881;55.002;73.232;2022-08-25T10:25:48;24.93;42.90
72756;SHT30;60881;55.002;73.232;2022-08-25T10:28:27;24.93;43.93
72756;SHT30;60881;55.002;73.232;2022-08-25T10:34:06;25.12;44.13
72756;SHT30;60881;55.002;73.232;2022-08-25T10:39:26;25.11;43.17
72756;SHT30;60881;55.002;73.232;2022-08-25T10:45:18;25.02;44.19
72756;SHT30;60881;55.002;73.232;2022-08-25T11:05:15;24.93;44.02
72756;SHT30;60881;55.002;73.232;2022-08-25T11:07:50;25.02;44.52
72756;SHT30;60881;55.002;73.232;2022-08-25T11:10:37;24.98;44.18
72756;SHT30;60881;55.002;73.232;2022-08-25T11:13:12;24.98;46.04
72756;SHT30;60881;55.002;73.232;2022-08-25T11:15:55;24.91;45.53
72756;SHT30;60881;55.002;73.232;2022-08-25T11:18:25;24.88;43.93
72756;SHT30;60881;55.002;73.232;2022-08-25T11:21:12;24.89;43.10
72756;SHT30;60881;55.002;73.232;2022-08-25T11:26:53;24.83;43.67
72756;SHT30;60881;55.002;73.232;2022-08-25T11:29:36;24.86;42.84
72756;SHT30;60881;55.002;73.232;2022-08-25T11:32:03;24.89;43.80
72756;SHT30;60881;55.002;73.232;2022-08-25T11:34:34;24.88;44.09
72756;SHT30;60881;55.002;73.232;2022-08-25T11:37:24;24.95;44.29
72756;SHT30;60881;55.002;73.232;2022-08-25T11:43:27;24.91;43.82
72756;SHT30;60881;55.002;73.232;2022-08-25T11:51:43;24.93;44.15
72756;SHT30;60881;55.002;73.232;2022-08-25T11:54:20;24.93;44.64
72756;SHT30;60881;55.002;73.232;2022-08-25T11:56:59;24.95;45.53
72756;SHT30;60881;55.002;73.232;2022-08-25T12:02:46;24.98;45.21
72756;SHT30;60881;55.002;73.232;2022-08-25T12:10:53;24.96;45.23
72756;SHT30;60881;55.002;73.232;2022-08-25T12:27:32;24.78;42.77
72756;SHT30;60881;55.002;73.232;2022-08-25T12:30:30;24.78;42.99
72756;SHT30;60881;55.002;73.232;2022-08-25T12:36:05;24.76;44.07
72756;SHT30;60881;55.002;73.232;2022-08-25T12:38:48;24.79;44.33
72756;SHT30;60881;55.002;73.232;2022-08-25T12:41:19;24.78;44.99
72756;SHT30;60881;55.002;73.232;2022-08-25T12:43:52;24.73;45.50
72756;SHT30;60881;55.002;73.232;2022-08-25T12:52:06;24.62;46.03
72756;SHT30;60881;55.002;73.232;2022-08-25T12:54:57;24.57;46.90
72756;SHT30;60881;55.002;73.232;2022-08-25T12:57:45;24.52;46.98
72756;SHT30;60881;55.002;73.232;2022-08-25T13:00:21;24.52;47.23
72756;SHT30;60881;55.002;73.232;2022-08-25T13:06:04;24.47;48.06
72756;SHT30;60881;55.002;73.232;2022-08-25T13:11:50;24.42;48.50
72756;SHT30;60881;55.002;73.232;2022-08-25T13:14:24;24.42;49.04
72756;SHT30;60881;55.002;73.232;2022-08-25T13:17:01;24.39;48.26
72756;SHT30;60881;55.002;73.232;2022-08-25T13:19:28;24.42;49.20
72756;SHT30;60881;55.002;73.232;2022-08-25T13:21:57;24.45;49.21
72756;SHT30;60881;55.002;73.232;2022-08-25T13:24:31;24.42;48.92
72756;SHT30;60881;55.002;73.232;2022-08-25T13:27:01;24.42;49.15
72756;SHT30;60881;55.002;73.232;2022-08-25T13:29:31;24.37;49.25
72756;SHT30;60881;55.002;73.232;2022-08-25T13:32:12;24.25;49.56
72756;SHT30;60881;55.002;73.232;2022-08-25T13:34:48;24.18;49.83
72756;SHT30;60881;55.002;73.232;2022-08-25T13:37:17;24.14;49.71
72756;SHT30;60881;55.002;73.232;2022-08-25T13:42:58;24.01;50.17
72756;SHT30;60881;55.002;73.232;2022-08-25T13:45:28;23.94;50.55
72756;SHT30;60881;55.002;73.232;2022-08-25T13:47:59;23.85;50.54
72756;SHT30;60881;55.002;73.232;2022-08-25T13:50:33;23.83;50.60
72756;SHT30;60881;55.002;73.232;2022-08-25T13:53:03;23.80;50.68
72756;SHT30;60881;55.002;73.232;2022-08-25T13:58:13;23.73;51.14
72756;SHT30;60881;55.002;73.232;2022-08-25T14:03:36;23.60;51.57
72756;SHT30;60881;55.002;73.232;2022-08-25T14:09:02;23.49;51.83
72756;SHT30;60881;55.002;73.232;2022-08-25T14:11:29;23.39;52.15
72756;SHT30;60881;55.002;73.232;2022-08-25T14:17:07;23.39;51.99
72756;SHT30;60881;55.002;73.232;2022-08-25T14:19:36;23.30;52.70
72756;SHT30;60881;55.002;73.232;2022-08-25T14:22:11;23.28;53.05
72756;SHT30;60881;55.002;73.232;2022-08-25T14:24:39;23.19;53.64
72756;SHT30;60881;55.002;73.232;2022-08-25T14:27:06;23.10;54.49
72756;SHT30;60881;55.002;73.232;2022-08-25T14:29:32;23.06;54.93
72756;SHT30;60881;55.002;73.232;2022-08-25T14:32:10;22.99;55.45
72756;SHT30;60881;55.002;73.232;2022-08-25T14:34:44;22.96;56.22
72756;SHT30;60881;55.002;73.232;2022-08-25T14:37:17;22.93;56.52
72756;SHT30;60881;55.002;73.232;2022-08-25T14:39:45;22.86;56.71
72756;SHT30;60881;55.002;73.232;2022-08-25T14:42:12;22.86;57.02
72756;SHT30;60881;55.002;73.232;2022-08-25T14:44:38;22.80;57.25
72756;SHT30;60881;55.002;73.232;2022-08-25T14:47:06;22.73;57.52
72756;SHT30;60881;55.002;73.232;2022-08-25T14:49:40;22.68;57.63
72756;SHT30;60881;55.002;73.232;2022-08-25T14:52:18;22.62;57.69
72756;SHT30;60881;55.002;73.232;2022-08-25T14:54:46;22.59;57.76
72756;SHT30;60881;55.002;73.232;2022-08-25T14:57:13;22.55;57.83
72756;SHT30;60881;55.002;73.232;2022-08-25T14:59:41;22.51;58.21
72756;SHT30;60881;55.002;73.232;2022-08-25T15:02:08;22.46;58.40
72756;SHT30;60881;55.002;73.232;2022-08-25T15:04:38;22.45;58.78
72756;SHT30;60881;55.002;73.232;2022-08-25T15:07:05;22.41;59.01
72756;SHT30;60881;55.002;73.232;2022-08-25T15:09:51;22.38;59.35
72756;SHT30;60881;55.002;73.232;2022-08-25T15:12:18;22.35;59.46
72756;SHT30;60881;55.002;73.232;2022-08-25T15:14:44;22.34;59.70
72756;SHT30;60881;55.002;73.232;2022-08-25T15:17:11;22.29;59.75
72756;SHT30;60881;55.002;73.232;2022-08-25T15:19:38;22.28;60.06
72756;SHT30;60881;55.002;73.232;2022-08-25T15:22:04;22.25;60.35
72756;SHT30;60881;55.002;73.232;2022-08-25T15:24:31;22.24;60.27
72756;SHT30;60881;55.002;73.232;2022-08-25T15:27:01;22.21;60.45
72756;SHT30;60881;55.002;73.232;2022-08-25T15:29:30;22.21;60.55
72756;SHT30;60881;55.002;73.232;2022-08-25T15:31:59;22.18;60.67
72756;SHT30;60881;55.002;73.232;2022-08-25T15:34:27;22.16;60.82
72756;SHT30;60881;55.002;73.232;2022-08-25T15:36:55;22.15;61.02
72756;SHT30;60881;55.002;73.232;2022-08-25T15:39:23;22.18;60.87
72756;SHT30;60881;55.002;73.232;2022-08-25T15:41:50;22.14;60.96
72756;SHT30;60881;55.002;73.232;2022-08-25T15:44:26;22.15;60.93
72756;SHT30;60881;55.002;73.232;2022-08-25T15:46:53;22.12;60.83
72756;SHT30;60881;55.002;73.232;2022-08-25T15:49:19;22.11;60.99
72756;SHT30;60881;55.002;73.232;2022-08-25T15:51:46;22.08;61.05
72756;SHT30;60881;55.002;73.232;2022-08-25T15:54:12;22.04;61.24
72756;SHT30;60881;55.002;73.232;2022-08-25T15:56:39;22.02;61.34
72756;SHT30;60881;55.002;73.232;2022-08-25T15:59:07;21.97;61.62
72756;SHT30;60881;55.002;73.232;2022-08-25T16:01:33;21.91;61.97
72756;SHT30;60881;55.002;73.232;2022-08-25T16:04:01;21.94;62.11
72756;SHT30;60881;55.002;73.232;2022-08-25T16:06:28;21.90;62.18
72756;SHT30;60881;55.002;73.232;2022-08-25T16:08:55;21.90;62.53
72756;SHT30;60881;55.002;73.232;2022-08-25T16:11:25;21.88;62.80
72756;SHT30;60881;55.002;73.232;2022-08-25T16:13:53;21.85;62.73
72756;SHT30;60881;55.002;73.232;2022-08-25T16:16:22;21.82;62.88
72756;SHT30;60881;55.002;73.232;2022-08-25T16:18:50;21.78;62.99
72756;SHT30;60881;55.002;73.232;2022-08-25T16:21:22;21.74;63.33
72756;SHT30;60881;55.002;73.232;2022-08-25T16:23:52;21.67;63.65
72756;SHT30;60881;55.002;73.232;2022-08-25T16:26:20;21.67;63.76
72756;SHT30;60881;55.002;73.232;2022-08-25T16:28:50;21.61;63.94
72756;SHT30;60881;55.002;73.232;2022-08-25T16:31:17;21.60;64.34
72756;SHT30;60881;55.002;73.232;2022-08-25T16:33:45;21.55;65.17
72756;SHT30;60881;55.002;73.232;2022-08-25T16:36:17;21.54;65.31
72756;SHT30;60881;55.002;73.232;2022-08-25T16:38:44;21.53;65.64
72756;SHT30;60881;55.002;73.232;2022-08-25T16:41:15;21.51;65.84
72756;SHT30;60881;55.002;73.232;2022-08-25T16:43:43;21.47;66.00
72756;SHT30;60881;55.002;73.232;2022-08-25T16:46:20;21.38;66.32
72756;SHT30;60881;55.002;73.232;2022-08-25T16:48:47;21.36;66.66
72756;SHT30;60881;55.002;73.232;2022-08-25T16:51:19;21.28;66.81
72756;SHT30;60881;55.002;73.232;2022-08-25T16:53:47;21.22;67.33
72756;SHT30;60881;55.002;73.232;2022-08-25T16:56:36;21.15;67.99
72756;SHT30;60881;55.002;73.232;2022-08-25T16:59:04;21.11;68.31
72756;SHT30;60881;55.002;73.232;2022-08-25T17:01:32;21.06;68.61
72756;SHT30;60881;55.002;73.232;2022-08-25T17:04:09;20.99;69.00
72756;SHT30;60881;55.002;73.232;2022-08-25T17:06:38;20.93;69.69
72756;SHT30;60881;55.002;73.232;2022-08-25T17:09:13;20.90;70.24
72756;SHT30;60881;55.002;73.232;2022-08-25T17:11:46;20.90;70.64
72756;SHT30;60881;55.002;73.232;2022-08-25T17:14:17;20.89;70.90
72756;SHT30;60881;55.002;73.232;2022-08-25T17:16:45;20.83;71.23
72756;SHT30;60881;55.002;73.232;2022-08-25T17:19:13;20.83;71.29
72756;SHT30;60881;55.002;73.232;2022-08-25T17:21:41;20.81;71.54
72756;SHT30;60881;55.002;73.232;2022-08-25T17:24:11;20.80;71.74
72756;SHT30;60881;55.002;73.232;2022-08-25T17:26:40;20.76;72.05
72756;SHT30;60881;55.002;73.232;2022-08-25T17:29:08;20.73;72.39
72756;SHT30;60881;55.002;73.232;2022-08-25T17:31:36;20.69;72.66
72756;SHT30;60881;55.002;73.232;2022-08-25T17:34:10;20.66;72.82
72756;SHT30;60881;55.002;73.232;2022-08-25T17:36:38;20.59;73.25
72756;SHT30;60881;55.002;73.232;2022-08-25T17:39:15;20.55;73.56